Time;durP1;ratioP1;P1;durP2;ratioP2;P2;SDS_P1;SDS_P2;PMS_P1;PMS_P2;Temp;Humidity;BMP_temperature;BMP_pressure;BME280_temperature;BME280_humidity;BME280_pressure;Samples;Min_cycle;Max_cycle;Signal;HPM_P1;HPM_P2
2023/09/09 00:01:16;;;;;;;8.10;4.70;;;;;;;20.89;96.07;99804.53;12201501;19;20002;-83
2023/09/09 00:05:17;;;;;;;13.50;6.93;;;;;;;20.85;96.43;99803.53;12200734;19;20477;-83
2023/09/09 00:09:19;;;;;;;10.88;5.63;;;;;;;20.83;96.86;99797.41;12182567;19;20006;-83
2023/09/09 00:13:21;;;;;;;9.30;5.40;;;;;;;20.79;97.28;99795.53;12203854;19;20490;-84
2023/09/09 00:17:22;;;;;;;7.53;4.97;;;;;;;20.75;98.13;99795.38;12183874;19;20014;-87
2023/09/09 00:21:24;;;;;;;7.03;4.73;;;;;;;20.73;99.40;99792.03;12208500;19;20003;-83
2023/09/09 00:25:26;;;;;;;8.82;4.72;;;;;;;20.67;100.00;99790.50;12202217;19;20047;-85
2023/09/09 00:29:29;;;;;;;11.73;5.40;;;;;;;20.62;100.00;99797.09;12180528;19;20114;-87
2023/09/09 00:33:31;;;;;;;12.18;5.55;;;;;;;20.56;100.00;99794.72;12203858;19;20481;-84
2023/09/09 00:37:33;;;;;;;10.70;5.63;;;;;;;20.43;100.00;99794.41;12197350;19;20090;-85
2023/09/09 00:41:34;;;;;;;14.05;6.70;;;;;;;20.33;100.00;99793.84;12188955;19;20111;-85
2023/09/09 00:45:38;;;;;;;10.67;5.77;;;;;;;20.19;100.00;99788.25;12213450;19;20006;-87
2023/09/09 00:49:40;;;;;;;18.67;6.22;;;;;;;20.09;100.00;99782.91;12218392;19;20026;-84
2023/09/09 00:53:44;;;;;;;9.45;6.10;;;;;;;19.96;100.00;99779.84;12190759;19;20027;-85
2023/09/09 00:57:46;;;;;;;9.65;5.65;;;;;;;19.88;100.00;99777.75;12210291;19;20006;-88
2023/09/09 01:01:48;;;;;;;7.95;5.82;;;;;;;19.83;100.00;99780.66;12205119;19;20003;-86
2023/09/09 01:05:50;;;;;;;11.80;6.17;;;;;;;19.77;100.00;99770.72;12180452;19;20027;-86
2023/09/09 01:09:53;;;;;;;7.90;5.70;;;;;;;19.73;100.00;99781.72;12198630;19;20007;-86
2023/09/09 01:13:56;;;;;;;10.17;6.17;;;;;;;19.70;100.00;99775.94;12202272;19;20014;-84
2023/09/09 01:17:58;;;;;;;7.88;5.45;;;;;;;19.68;100.00;99783.78;12191024;19;20497;-86
2023/09/09 01:22:06;;;;;;;7.22;5.03;;;;;;;19.64;100.00;99785.53;12215103;19;20011;-86
2023/09/09 01:26:08;;;;;;;10.05;5.63;;;;;;;19.61;100.00;99783.34;12213854;19;20652;-85
2023/09/09 01:30:13;;;;;;;9.25;6.07;;;;;;;19.59;100.00;99775.25;12188510;19;20006;-86
2023/09/09 01:34:14;;;;;;;8.55;5.13;;;;;;;19.57;100.00;99777.53;12212568;19;20014;-84
2023/09/09 01:38:17;;;;;;;8.75;5.45;;;;;;;19.51;100.00;99784.38;12233200;19;20602;-85
2023/09/09 01:42:19;;;;;;;9.40;6.22;;;;;;;19.45;100.00;99786.44;12209969;19;20002;-86
2023/09/09 01:46:20;;;;;;;7.43;5.17;;;;;;;19.42;100.00;99789.03;12206888;19;20128;-85
2023/09/09 01:50:22;;;;;;;11.00;5.90;;;;;;;19.32;100.00;99790.06;12184831;19;20011;-84
2023/09/09 01:54:24;;;;;;;8.93;5.97;;;;;;;19.21;100.00;99796.97;12206037;19;20022;-84
2023/09/09 01:58:26;;;;;;;7.88;5.80;;;;;;;19.08;100.00;99799.41;12203580;19;20263;-84
2023/09/09 02:02:28;;;;;;;9.20;5.72;;;;;;;18.99;100.00;99795.69;12184606;19;20019;-85
2023/09/09 02:06:30;;;;;;;9.73;6.33;;;;;;;18.93;100.00;99805.28;12204239;19;20011;-88
2023/09/09 02:10:32;;;;;;;10.73;5.80;;;;;;;18.89;100.00;99804.25;12202613;19;20009;-87
2023/09/09 02:14:33;;;;;;;9.70;5.60;;;;;;;18.88;100.00;99796.97;12189922;19;20032;-85
2023/09/09 02:18:39;;;;;;;6.13;4.30;;;;;;;18.86;100.00;99790.91;12213703;19;20022;-85
2023/09/09 02:22:41;;;;;;;9.52;6.13;;;;;;;18.82;100.00;99792.63;12211405;19;20595;-88
2023/09/09 02:26:43;;;;;;;12.90;6.43;;;;;;;18.78;100.00;99788.78;12187931;19;20756;-85
2023/09/09 02:30:45;;;;;;;11.38;6.50;;;;;;;18.75;100.00;99795.00;12212827;19;20011;-86
2023/09/09 02:34:48;;;;;;;9.45;6.70;;;;;;;18.71;100.00;99794.75;12216576;19;20365;-85
2023/09/09 02:38:50;;;;;;;10.20;6.37;;;;;;;18.68;100.00;99798.16;12193124;19;20039;-86
2023/09/09 02:42:51;;;;;;;8.48;5.75;;;;;;;18.65;100.00;99793.16;12213570;19;21303;-85
2023/09/09 02:46:54;;;;;;;8.23;5.78;;;;;;;18.63;100.00;99798.22;12204998;19;20018;-86
2023/09/09 02:50:56;;;;;;;9.13;6.00;;;;;;;18.61;100.00;99801.28;12189856;19;20423;-86
2023/09/09 02:54:58;;;;;;;10.37;6.80;;;;;;;18.58;100.00;99796.31;12208459;19;20007;-85
2023/09/09 02:59:00;;;;;;;10.73;6.83;;;;;;;18.55;100.00;99791.34;12207177;19;20018;-87
2023/09/09 03:03:02;;;;;;;8.77;5.80;;;;;;;18.51;100.00;99803.44;12186939;19;20255;-87
2023/09/09 03:07:04;;;;;;;8.73;5.88;;;;;;;18.48;100.00;99807.66;12212644;19;20928;-86
2023/09/09 03:11:06;;;;;;;12.40;6.83;;;;;;;18.44;100.00;99796.28;12212200;19;20484;-86
2023/09/09 03:15:09;;;;;;;12.38;6.82;;;;;;;18.40;100.00;99799.97;12180464;19;20032;-86
2023/09/09 03:19:11;;;;;;;9.40;6.23;;;;;;;18.35;100.00;99794.44;12197206;19;20549;-85
2023/09/09 03:23:13;;;;;;;10.37;6.93;;;;;;;18.32;100.00;99806.22;12195373;19;20003;-86
2023/09/09 03:27:15;;;;;;;11.85;6.55;;;;;;;18.24;100.00;99802.16;12171776;19;20011;-85
2023/09/09 03:31:17;;;;;;;11.93;8.03;;;;;;;18.13;100.00;99807.03;12193154;19;20011;-87
2023/09/09 03:35:19;;;;;;;10.37;7.27;;;;;;;18.01;100.00;99809.44;12193997;19;20473;-86
2023/09/09 03:39:21;;;;;;;14.75;7.10;;;;;;;17.92;100.00;99803.69;12199564;19;20805;-88
2023/09/09 03:43:24;;;;;;;13.57;7.82;;;;;;;17.85;100.00;99805.22;12198021;19;20388;-86
2023/09/09 03:47:26;;;;;;;12.37;7.47;;;;;;;17.77;100.00;99801.94;12175199;19;20015;-86
2023/09/09 03:51:28;;;;;;;12.32;7.18;;;;;;;17.68;100.00;99798.13;12195973;19;20007;-87
2023/09/09 03:55:32;;;;;;;12.00;7.67;;;;;;;17.64;100.00;99808.22;12198689;19;20364;-85
2023/09/09 03:59:34;;;;;;;10.52;6.47;;;;;;;17.61;100.00;99807.94;12182135;19;20259;-85
2023/09/09 04:03:37;;;;;;;9.80;7.28;;;;;;;17.62;100.00;99809.63;12208816;19;20003;-88
2023/09/09 04:07:44;;;;;;;13.93;7.78;;;;;;;17.59;100.00;99813.84;12203060;19;20010;-86
2023/09/09 04:11:49;;;;;;;14.73;7.47;;;;;;;17.59;100.00;99819.41;12199157;19;20027;-86
2023/09/09 04:15:56;;;;;;;12.27;7.82;;;;;;;17.62;100.00;99809.63;12250952;19;20010;-89
2023/09/09 04:20:11;;;;;;;12.15;8.07;;;;;;;17.63;100.00;99822.44;12242596;19;20358;-88
2023/09/09 04:24:14;;;;;;;11.68;8.13;;;;;;;17.57;100.00;99820.81;12225911;19;20010;-85
2023/09/09 04:28:16;;;;;;;11.93;8.20;;;;;;;17.51;100.00;99820.06;12227058;19;20010;-87
2023/09/09 04:32:19;;;;;;;13.40;9.13;;;;;;;17.44;100.00;99823.19;12208283;19;20010;-88
2023/09/09 04:36:21;;;;;;;14.27;8.40;;;;;;;17.40;100.00;99821.28;12212032;19;20018;-87
2023/09/09 04:40:23;;;;;;;11.37;8.33;;;;;;;17.36;100.00;99823.00;12207760;19;20519;-86
2023/09/09 04:44:25;;;;;;;12.80;7.97;;;;;;;17.32;100.00;99820.00;12176864;19;20085;-88
2023/09/09 04:48:27;;;;;;;13.55;8.23;;;;;;;17.31;100.00;99819.16;12202867;19;20006;-86
2023/09/09 04:52:29;;;;;;;10.97;8.30;;;;;;;17.29;100.00;99823.38;12192889;19;20010;-86
2023/09/09 04:56:31;;;;;;;12.77;8.90;;;;;;;17.28;100.00;99824.47;12180452;19;20011;-87
2023/09/09 05:00:33;;;;;;;12.73;8.63;;;;;;;17.27;100.00;99837.56;12218373;19;20011;-87
2023/09/09 05:04:35;;;;;;;15.30;8.70;;;;;;;17.30;100.00;99842.53;12220817;19;20027;-86
2023/09/09 05:08:37;;;;;;;11.10;8.00;;;;;;;17.33;100.00;99831.97;12192879;19;20036;-87
2023/09/09 05:12:39;;;;;;;18.08;9.77;;;;;;;17.34;100.00;99839.19;12221381;19;20006;-85
2023/09/09 05:16:43;;;;;;;14.02;8.65;;;;;;;17.36;100.00;99848.06;12223187;19;20062;-88
2023/09/09 05:20:45;;;;;;;14.53;9.63;;;;;;;17.38;100.00;99846.66;12188634;19;20497;-88
2023/09/09 05:24:47;;;;;;;14.33;9.87;;;;;;;17.40;100.00;99844.41;12213360;19;20014;-87
2023/09/09 05:28:49;;;;;;;16.90;10.70;;;;;;;17.44;100.00;99833.50;12208272;19;20007;-86
2023/09/09 05:32:51;;;;;;;18.03;11.40;;;;;;;17.48;100.00;99848.50;12187078;19;20019;-85
2023/09/09 05:36:53;;;;;;;17.73;10.17;;;;;;;17.51;100.00;99851.53;12195569;19;20481;-87
2023/09/09 05:40:55;;;;;;;14.40;9.60;;;;;;;17.57;100.00;99852.31;12199960;19;20026;-85
2023/09/09 05:44:57;;;;;;;15.93;10.63;;;;;;;17.58;100.00;99862.34;12177864;19;20645;-86
2023/09/09 05:48:58;;;;;;;14.18;8.73;;;;;;;17.54;100.00;99859.28;12197745;19;20176;-84
2023/09/09 05:53:00;;;;;;;14.73;9.47;;;;;;;17.58;100.00;99858.69;12195732;19;20050;-87
2023/09/09 05:57:04;;;;;;;18.00;9.98;;;;;;;17.61;100.00;99856.19;12175681;19;20007;-87
2023/09/09 06:01:06;;;;;;;16.48;9.65;;;;;;;17.63;100.00;99867.00;12199634;19;20091;-87
2023/09/09 06:05:08;;;;;;;15.30;9.90;;;;;;;17.68;100.00;99866.97;12206718;19;20022;-89
2023/09/09 06:09:11;;;;;;;12.80;9.20;;;;;;;17.70;100.00;99865.53;12180625;19;21128;-88
2023/09/09 06:13:14;;;;;;;14.27;9.15;;;;;;;17.77;100.00;99868.81;12196923;19;20081;-87
2023/09/09 06:17:16;;;;;;;15.70;9.25;;;;;;;17.85;100.00;99874.91;12203807;19;20010;-86
2023/09/09 06:21:20;;;;;;;15.07;9.73;;;;;;;17.90;100.00;99885.97;12178834;19;20038;-87
2023/09/09 06:25:22;;;;;;;13.27;9.88;;;;;;;17.95;100.00;99883.94;12210767;19;20042;-86
2023/09/09 06:29:25;;;;;;;15.52;10.10;;;;;;;18.05;100.00;99882.16;12193720;19;20014;-87
2023/09/09 06:33:27;;;;;;;15.88;10.48;;;;;;;18.14;100.00;99885.94;12225963;19;20393;-88
2023/09/09 06:37:29;;;;;;;16.60;11.07;;;;;;;18.24;100.00;99890.59;12220198;19;20010;-87
2023/09/09 06:41:31;;;;;;;17.98;12.35;;;;;;;18.34;100.00;99887.66;12195349;19;20014;-88
2023/09/09 06:45:33;;;;;;;17.77;11.07;;;;;;;18.43;100.00;99885.84;12216627;19;20072;-88
2023/09/09 06:49:35;;;;;;;15.75;10.48;;;;;;;18.57;100.00;99897.94;12216771;19;20493;-86
2023/09/09 06:53:37;;;;;;;14.73;10.50;;;;;;;18.72;100.00;99902.47;12192605;19;20046;-85
2023/09/09 06:57:39;;;;;;;15.43;11.20;;;;;;;18.89;100.00;99900.00;12222976;19;20011;-85
2023/09/09 07:01:41;;;;;;;15.93;10.77;;;;;;;19.05;100.00;99905.34;12213054;19;20010;-84
2023/09/09 07:05:43;;;;;;;16.03;11.20;;;;;;;19.22;100.00;99899.19;12181542;19;20046;-84
2023/09/09 07:09:44;;;;;;;16.67;10.53;;;;;;;19.39;100.00;99910.63;12208352;19;20014;-84
2023/09/09 07:13:46;;;;;;;19.55;11.45;;;;;;;19.61;100.00;99906.34;12206104;19;20007;-85
2023/09/09 07:17:48;;;;;;;15.57;10.50;;;;;;;19.80;100.00;99910.72;12230718;19;20884;-84
2023/09/09 07:21:50;;;;;;;15.83;10.90;;;;;;;20.01;100.00;99907.53;12256995;19;20015;-84
2023/09/09 07:25:52;;;;;;;16.60;10.90;;;;;;;20.20;100.00;99910.25;12226014;19;20294;-82
2023/09/09 07:29:54;;;;;;;15.52;10.35;;;;;;;20.40;100.00;99912.59;12222289;19;20080;-86
2023/09/09 07:33:56;;;;;;;14.80;10.43;;;;;;;20.57;100.00;99908.34;12257697;19;20039;-87
2023/09/09 07:37:58;;;;;;;15.73;11.07;;;;;;;20.82;100.00;99902.19;12258977;19;20469;-86
2023/09/09 07:42:00;;;;;;;14.90;10.47;;;;;;;21.08;100.00;99912.75;12237196;19;20010;-87
2023/09/09 07:46:02;;;;;;;16.63;10.67;;;;;;;21.33;100.00;99906.53;12259287;19;20021;-88
2023/09/09 07:50:04;;;;;;;18.58;10.73;;;;;;;21.65;100.00;99912.19;12257999;19;20054;-86
2023/09/09 07:54:06;;;;;;;13.57;9.80;;;;;;;21.88;100.00;99918.56;12231816;19;20003;-85
2023/09/09 07:58:08;;;;;;;16.57;10.77;;;;;;;22.11;100.00;99919.34;12231781;19;20030;-85
2023/09/09 08:02:12;;;;;;;14.53;10.97;;;;;;;22.25;100.00;99920.91;12234632;19;20452;-85
2023/09/09 08:06:13;;;;;;;26.75;12.15;;;;;;;22.46;100.00;99925.94;12220505;19;20661;-85
2023/09/09 08:10:16;;;;;;;17.50;10.77;;;;;;;22.68;100.00;99922.97;12221857;19;20014;-85
2023/09/09 08:14:18;;;;;;;18.42;10.65;;;;;;;23.00;100.00;99922.88;12237661;19;20014;-84
2023/09/09 08:18:20;;;;;;;13.20;9.83;;;;;;;23.22;100.00;99924.69;12229645;19;20002;-86
2023/09/09 08:22:22;;;;;;;13.23;9.43;;;;;;;23.36;100.00;99914.91;12232721;19;20614;-84
2023/09/09 08:26:25;;;;;;;15.27;9.50;;;;;;;23.60;100.00;99920.00;12209462;19;20003;-86
2023/09/09 08:30:27;;;;;;;16.33;10.00;;;;;;;23.80;100.00;99921.31;12253999;19;20003;-85
2023/09/09 08:34:29;;;;;;;;;;;;;;;23.98;100.00;99924.88;12227025;19;20002;-85
2023/09/09 08:38:31;;;;;;;13.27;9.95;;;;;;;24.18;100.00;99930.91;12223670;19;20448;-85
2023/09/09 08:42:56;;;;;;;13.13;10.13;;;;;;;24.45;100.00;99938.94;12193004;19;20469;-85
2023/09/09 08:46:58;;;;;;;13.35;9.55;;;;;;;24.72;98.53;99931.16;12211184;19;20021;-84
2023/09/09 08:51:03;;;;;;;14.07;10.50;;;;;;;24.74;96.53;99926.81;12190602;19;20070;-84
2023/09/09 08:55:05;;;;;;;16.17;10.57;;;;;;;24.84;96.47;99934.06;12210040;19;20011;-85
2023/09/09 08:59:08;;;;;;;16.83;10.73;;;;;;;25.11;93.47;99926.22;12216337;19;20007;-86
2023/09/09 09:03:11;;;;;;;14.50;10.32;;;;;;;25.46;90.30;99933.22;12200540;19;20026;-85
2023/09/09 09:07:14;;;;;;;15.20;10.48;;;;;;;25.69;87.82;99925.16;12211354;19;20022;-85
2023/09/09 09:11:20;;;;;;;13.95;10.13;;;;;;;25.81;86.92;99927.19;12212002;19;20003;-86
2023/09/09 09:15:24;;;;;;;15.98;10.60;;;;;;;26.05;84.99;99929.25;12191369;19;20014;-86
2023/09/09 09:19:29;;;;;;;14.15;9.45;;;;;;;26.06;83.33;99933.75;12213107;19;20011;-86
2023/09/09 09:28:01;;;;;;;14.60;10.38;;;;;;;26.39;81.63;99937.66;12195926;19;20433;-84
2023/09/09 09:32:04;;;;;;;18.80;9.60;;;;;;;26.44;80.90;99926.09;12213698;19;20054;-86
2023/09/09 09:36:07;;;;;;;12.73;9.48;;;;;;;26.53;80.07;99933.31;12176841;19;20438;-85
2023/09/09 09:40:10;;;;;;;15.65;9.43;;;;;;;26.71;78.44;99925.41;12213204;19;20024;-85
2023/09/09 09:44:20;;;;;;;15.10;9.00;;;;;;;26.88;75.13;99923.47;12207530;19;20014;-85
2023/09/09 09:48:26;;;;;;;13.40;9.80;;;;;;;27.17;74.47;99919.56;12192669;19;20005;-85
2023/09/09 09:52:29;;;;;;;11.05;9.60;;;;;;;27.49;73.65;99914.81;12208604;19;20007;-84
2023/09/09 09:56:31;;;;;;;12.02;8.57;;;;;;;27.71;71.96;99905.72;12205984;19;20008;-84
2023/09/09 10:00:33;;;;;;;15.85;9.57;;;;;;;27.92;70.83;99904.66;12198581;19;20015;-84
2023/09/09 10:04:48;;;;;;;12.27;9.30;;;;;;;27.92;70.93;99902.66;12217038;19;20011;-85
2023/09/09 10:09:00;;;;;;;23.05;9.68;;;;;;;28.24;70.76;99910.34;12196758;19;20006;-83
2023/09/09 10:13:07;;;;;;;12.25;9.27;;;;;;;28.42;69.02;99907.97;12217660;19;20028;-84
2023/09/09 10:17:09;;;;;;;14.25;9.45;;;;;;;28.52;68.10;99911.06;12225954;19;20010;-84
2023/09/09 10:21:12;;;;;;;14.63;9.75;;;;;;;28.76;67.01;99910.00;12210006;19;20007;-84
2023/09/09 10:25:13;;;;;;;;;;;;;;;28.69;67.85;99904.16;12220659;19;20014;-83
2023/09/09 10:29:16;;;;;;;16.70;9.77;;;;;;;28.98;67.53;99897.13;12224970;19;20326;-85
2023/09/09 10:33:22;;;;;;;12.45;8.98;;;;;;;29.19;67.09;99888.28;12194826;19;20110;-84
2023/09/09 10:37:28;;;;;;;11.55;8.52;;;;;;;29.45;67.61;99896.09;12212803;19;20014;-85
2023/09/09 10:41:34;;;;;;;12.45;8.57;;;;;;;29.71;65.53;99886.06;12218689;19;20370;-84
2023/09/09 10:45:43;;;;;;;11.82;8.18;;;;;;;29.85;63.87;99888.34;12209175;19;20003;-86
2023/09/09 10:50:02;;;;;;;11.23;8.25;;;;;;;29.91;62.20;99884.00;12211659;19;20010;-84
2023/09/09 10:54:12;;;;;;;22.17;8.52;;;;;;;29.99;61.81;99891.44;12186658;19;20050;-84
2023/09/09 10:58:47;;;;;;;16.33;8.55;;;;;;;30.14;60.23;99889.66;12207861;19;20002;-84
2023/09/09 11:03:03;;;;;;;8.50;7.40;;;;;;;30.41;59.33;99884.84;12194350;19;20473;-84
2023/09/09 11:07:23;;;;;;;9.88;7.38;;;;;;;30.61;57.70;99886.38;12207263;19;20018;-85
2023/09/09 11:11:33;;;;;;;10.80;7.88;;;;;;;30.48;57.08;99884.13;12211206;19;20006;-84
2023/09/09 11:15:51;;;;;;;10.73;7.90;;;;;;;30.39;56.76;99890.91;12194690;19;20002;-84
2023/09/09 11:19:53;;;;;;;9.88;7.95;;;;;;;30.54;55.51;99889.09;12209012;19;20010;-84
2023/09/09 11:23:56;;;;;;;10.63;7.03;;;;;;;30.74;56.07;99892.66;12184713;19;20521;-83
2023/09/09 11:27:58;;;;;;;11.38;7.50;;;;;;;30.94;54.47;99889.72;12207428;19;20046;-84
2023/09/09 11:32:00;;;;;;;;;;;;;;;31.02;53.45;99886.56;12209971;19;20024;-84
2023/09/09 11:36:05;;;;;;;10.50;6.63;;;;;;;31.06;51.40;99892.31;12195520;19;19927;-84
2023/09/09 11:40:08;;;;;;;13.23;7.28;;;;;;;31.36;50.32;99885.78;12214004;19;20010;-84
2023/09/09 11:44:10;;;;;;;16.60;8.10;;;;;;;31.94;50.08;99893.75;12214776;19;20443;-84
2023/09/09 11:48:14;;;;;;;11.75;8.45;;;;;;;32.50;49.53;99883.25;12196664;19;20377;-84
2023/09/09 11:52:20;;;;;;;11.50;7.45;;;;;;;33.09;47.17;99881.97;12215626;19;20666;-84
2023/09/09 11:56:22;;;;;;;10.45;8.40;;;;;;;33.74;45.21;99873.63;12219165;19;20007;-82
2023/09/09 12:00:23;;;;;;;11.93;8.50;;;;;;;34.45;43.98;99864.25;12194710;19;20024;-83
2023/09/09 12:04:25;;;;;;;17.50;8.55;;;;;;;34.83;41.71;99861.72;12213870;19;20003;-81
2023/09/09 12:08:27;;;;;;;9.80;8.07;;;;;;;35.31;38.63;99849.69;12212914;19;20007;-83
2023/09/09 12:12:30;;;;;;;8.48;7.57;;;;;;;35.69;37.68;99856.44;12185362;19;20007;-81
2023/09/09 12:16:33;;;;;;;9.95;8.13;;;;;;;35.90;36.80;99855.47;12215388;19;20091;-82
2023/09/09 12:20:35;;;;;;;9.90;7.78;;;;;;;36.34;36.49;99845.28;12194733;19;20003;-82
2023/09/09 12:24:40;;;;;;;13.27;7.93;;;;;;;36.49;35.56;99834.47;12211806;19;20034;-82
2023/09/09 12:28:45;;;;;;;10.20;7.97;;;;;;;36.46;34.92;99836.13;12207921;19;20014;-83
2023/09/09 12:32:47;;;;;;;13.88;6.95;;;;;;;36.77;35.31;99839.13;12184520;19;20512;-82
2023/09/09 12:36:50;;;;;;;10.18;7.57;;;;;;;37.18;33.52;99833.28;12213839;19;20006;-83
2023/09/09 12:41:01;;;;;;;8.05;7.25;;;;;;;37.84;32.82;99825.38;12214686;19;20011;-85
2023/09/09 12:45:09;;;;;;;;;;;;;;;37.88;33.60;99834.75;12191916;19;20011;-83
2023/09/09 12:49:11;;;;;;;8.77;7.88;;;;;;;38.11;32.04;99836.84;12209321;19;19935;-82
2023/09/09 12:53:13;;;;;;;9.98;7.53;;;;;;;38.75;30.83;99831.97;12220487;19;20014;-82
2023/09/09 12:57:14;;;;;;;9.63;7.63;;;;;;;38.97;30.70;99836.06;12193493;19;20014;-82
2023/09/09 13:01:17;;;;;;;9.18;7.18;;;;;;;39.42;29.71;99844.16;12217135;19;20031;-85
2023/09/09 13:05:19;;;;;;;7.93;6.88;;;;;;;39.64;29.07;99837.88;12208381;19;20031;-83
2023/09/09 13:09:21;;;;;;;7.93;7.07;;;;;;;40.21;28.17;99835.69;12189061;19;20002;-83
2023/09/09 13:13:23;;;;;;;11.52;7.53;;;;;;;40.25;27.28;99833.53;12212729;19;20002;-85
2023/09/09 13:17:54;;;;;;;9.43;6.97;;;;;;;39.98;27.63;99833.78;12219842;19;20022;-83
2023/09/09 13:21:57;;;;;;;9.85;7.72;;;;;;;40.08;27.74;99824.06;12186967;19;20366;-83
2023/09/09 13:25:58;;;;;;;10.18;7.38;;;;;;;39.83;28.18;99831.28;12204731;19;20007;-83
2023/09/09 13:30:00;;;;;;;10.50;7.47;;;;;;;38.79;28.83;99831.88;12189631;19;20480;-84
2023/09/09 13:34:02;;;;;;;10.23;7.90;;;;;;;38.23;28.96;99823.91;12221298;19;20030;-85
2023/09/09 13:38:04;;;;;;;10.23;7.65;;;;;;;38.78;29.25;99824.50;12220229;19;20350;-84
2023/09/09 13:42:12;;;;;;;11.32;7.45;;;;;;;39.31;28.07;99822.59;12198317;19;20980;-86
2023/09/09 13:46:38;;;;;;;8.25;7.45;;;;;;;39.92;27.23;99816.22;12211234;19;20025;-87
2023/09/09 13:50:41;;;;;;;9.02;7.65;;;;;;;40.10;27.29;99810.00;12192678;19;20025;-84
2023/09/09 13:54:44;;;;;;;8.75;7.07;;;;;;;40.50;26.45;99804.78;12220908;19;20026;-86
2023/09/09 13:58:46;;;;;;;8.07;7.20;;;;;;;40.91;26.46;99796.63;12217794;19;20105;-84
2023/09/09 14:02:48;;;;;;;9.82;7.40;;;;;;;40.54;27.07;99804.69;12194632;19;21682;-83
2023/09/09 14:06:50;;;;;;;9.23;8.25;;;;;;;39.15;27.06;99801.09;12217012;19;20106;-84
2023/09/09 14:10:52;;;;;;;8.27;7.47;;;;;;;37.40;29.56;99802.19;12222424;19;20010;-83
2023/09/09 14:14:53;;;;;;;291.63;267.77;;;;;;;36.20;30.92;99802.38;12203713;19;20024;-85
2023/09/09 14:18:55;;;;;;;940.97;841.58;;;;;;;35.68;32.52;99794.63;12221391;19;20054;-84
2023/09/09 14:22:57;;;;;;;17.08;15.45;;;;;;;35.16;32.87;99794.53;12219981;19;20017;-84
2023/09/09 14:26:59;;;;;;;1877.07;999.90;;;;;;;34.77;33.79;99789.78;12202248;19;20316;-84
2023/09/09 14:31:01;;;;;;;77.90;71.78;;;;;;;34.84;33.67;99794.69;12223619;19;20677;-85
2023/09/09 14:35:03;;;;;;;33.67;30.88;;;;;;;35.07;33.66;99788.44;12214545;19;20006;-87
2023/09/09 14:39:05;;;;;;;135.05;123.28;;;;;;;35.32;34.05;99779.72;12195310;19;20562;-84
2023/09/09 14:43:07;;;;;;;1481.80;999.90;;;;;;;35.01;35.29;99790.94;12218325;19;20017;-84
2023/09/09 14:47:09;;;;;;;809.00;737.28;;;;;;;34.98;35.45;99782.31;12222070;19;20024;-84
2023/09/09 14:51:11;;;;;;;596.00;546.47;;;;;;;35.01;36.52;99776.59;12203443;19;20015;-83
2023/09/09 14:55:12;;;;;;;168.07;152.57;;;;;;;34.76;35.39;99776.72;12245849;19;20010;-85
2023/09/09 14:59:17;;;;;;;308.85;243.00;;;;;;;34.16;35.31;99772.78;12258761;19;20007;-85
2023/09/09 15:03:19;;;;;;;923.13;786.70;;;;;;;34.18;36.25;99773.19;12243831;19;20067;-85
2023/09/09 15:07:21;;;;;;;166.38;136.52;;;;;;;34.20;34.42;99772.75;12263397;19;20055;-86
2023/09/09 15:11:23;;;;;;;27.88;22.52;;;;;;;33.97;34.61;99771.16;12221627;19;20021;-85
2023/09/09 15:15:24;;;;;;;12.13;9.35;;;;;;;33.41;35.41;99777.66;12198298;19;20427;-85
2023/09/09 15:19:26;;;;;;;17.42;15.60;;;;;;;33.03;36.43;99780.00;12215215;19;20824;-84
2023/09/09 15:23:28;;;;;;;679.58;558.85;;;;;;;33.31;37.02;99779.25;12223000;19;20026;-85
2023/09/09 15:27:30;;;;;;;68.93;62.05;;;;;;;32.89;36.67;99777.88;12196343;19;20007;-85
2023/09/09 15:31:34;;;;;;;45.78;40.75;;;;;;;32.58;38.22;99780.19;12217035;19;20003;-86
2023/09/09 15:35:36;;;;;;;1001.28;772.53;;;;;;;32.67;38.42;99777.78;12186535;19;20002;-85
2023/09/09 15:39:38;;;;;;;;;;;;;;;32.34;38.21;99778.00;12208189;19;20164;-86
2023/09/09 15:43:47;;;;;;;250.88;187.77;;;;;;;31.96;37.97;99781.00;12210430;19;20493;-86
2023/09/09 15:47:51;;;;;;;68.00;52.28;;;;;;;31.53;39.09;99779.78;12183634;19;20015;-87
2023/09/09 15:51:53;;;;;;;23.85;18.58;;;;;;;31.25;39.80;99781.13;12205621;19;20046;-87
2023/09/09 15:55:58;;;;;;;10.38;8.38;;;;;;;30.99;39.18;99779.19;12204250;19;20060;-85
2023/09/09 16:00:15;;;;;;;11.98;9.77;;;;;;;30.81;41.45;99784.69;12180269;19;20003;-85
2023/09/09 16:04:33;;;;;;;10.18;8.20;;;;;;;30.68;42.91;99780.44;12205988;19;20011;-86
2023/09/09 16:08:47;;;;;;;;;;;;;;;30.68;42.68;99774.75;12206997;19;20035;-86
2023/09/09 16:18:13;;;;;;;6.53;5.53;;;;;;;30.37;42.93;99787.31;12194005;19;20016;-86
2023/09/09 16:33:22;;;;;;;11.15;7.07;;;;;;;30.43;46.05;99783.78;12178829;19;20021;-86
2023/09/09 16:53:48;;;;;;;10.23;7.88;;;;;;;28.85;52.49;99787.84;12186371;19;20580;-84
2023/09/09 16:57:50;;;;;;;16.33;7.82;;;;;;;28.59;54.05;99799.88;12208473;19;20011;-84
2023/09/09 17:01:52;;;;;;;12.60;7.03;;;;;;;28.33;55.46;99800.47;12209508;19;20014;-86
2023/09/09 17:05:55;;;;;;;10.95;6.60;;;;;;;28.10;56.58;99808.81;12190505;19;20015;-83
2023/09/09 17:09:57;;;;;;;7.93;5.97;;;;;;;27.90;58.76;99807.94;12209781;19;20043;-84
2023/09/09 17:13:59;;;;;;;7.95;6.72;;;;;;;27.72;60.33;99816.78;12210339;19;20006;-84
2023/09/09 17:18:01;;;;;;;10.38;6.88;;;;;;;27.54;62.04;99817.50;12186272;19;20457;-85
2023/09/09 17:22:06;;;;;;;10.88;7.57;;;;;;;27.31;63.37;99812.47;12205667;19;20086;-84
2023/09/09 17:26:08;;;;;;;8.88;6.70;;;;;;;27.12;64.46;99810.28;12203648;19;20006;-84
2023/09/09 17:30:13;;;;;;;11.50;6.43;;;;;;;26.92;65.32;99817.81;12183618;19;20014;-84
2023/09/09 17:34:15;;;;;;;9.98;8.20;;;;;;;26.75;66.58;99809.63;12201900;19;20098;-84
2023/09/09 17:38:16;;;;;;;13.68;8.70;;;;;;;26.53;67.49;99811.81;12198312;19;20094;-84
2023/09/09 17:42:23;;;;;;;9.45;6.05;;;;;;;26.30;68.54;99810.66;12181329;19;19999;-86
2023/09/09 17:46:25;;;;;;;9.40;6.47;;;;;;;26.07;69.59;99813.97;12200563;19;20015;-85
2023/09/09 17:50:27;;;;;;;9.45;6.28;;;;;;;25.85;70.60;99826.56;12199365;19;21355;-86
2023/09/09 17:54:29;;;;;;;8.90;6.38;;;;;;;25.66;71.42;99826.28;12174352;19;20829;-85
2023/09/09 17:58:30;;;;;;;12.25;6.32;;;;;;;25.48;72.20;99833.31;12199641;19;20083;-85
2023/09/09 18:02:32;;;;;;;9.70;6.05;;;;;;;25.30;73.00;99827.03;12201011;19;20007;-85
2023/09/09 18:06:34;;;;;;;10.98;6.68;;;;;;;25.15;73.58;99832.16;12175848;19;20010;-85
2023/09/09 18:10:36;;;;;;;17.70;6.45;;;;;;;24.99;74.45;99837.59;12198702;19;20627;-87
2023/09/09 18:14:38;;;;;;;8.13;5.95;;;;;;;24.87;74.63;99834.72;12176959;19;20007;-85
2023/09/09 18:18:40;;;;;;;9.83;6.13;;;;;;;24.76;74.95;99836.31;12205759;19;20011;-85
2023/09/09 18:22:41;;;;;;;13.63;7.00;;;;;;;24.67;75.70;99832.75;12211359;19;20270;-85
2023/09/09 18:27:24;;;;;;;10.00;6.27;;;;;;;24.56;76.31;99835.94;12185646;19;20010;-85
2023/09/09 18:42:09;;;;;;;8.40;5.65;;;;;;;24.19;76.13;99851.75;12235894;19;19989;-86
2023/09/09 18:46:52;;;;;;;9.25;5.97;;;;;;;24.11;75.39;99861.88;12108100;19;2004365;-85
2023/09/09 19:15:50;;;;;;;;;;;;;;;;;;;;;
2023/09/09 19:25:32;;;;;;;10.93;6.30;;;;;;;23.46;79.32;99877.19;12220488;19;20061;-87
2023/09/09 19:29:59;;;;;;;12.35;6.65;;;;;;;23.42;80.08;99873.38;12198189;19;20006;-86
2023/09/09 19:57:53;;;;;;;8.77;6.70;;;;;;;23.17;81.32;99889.97;12223876;19;20033;-88
2023/09/09 20:41:05;;;;;;;8.52;6.47;;;;;;;22.80;82.99;99894.25;12197462;19;19993;-86
2023/09/09 20:58:53;;;;;;;12.70;6.78;;;;;;;22.71;82.83;99893.41;12215821;19;20357;-86
2023/09/09 21:35:03;;;;;;;13.18;6.68;;;;;;;22.74;79.84;99887.94;12205448;19;20105;-85
2023/09/09 22:11:47;;;;;;;9.45;6.28;;;;;;;22.39;85.62;99891.88;12197028;19;20013;-84
2023/09/09 22:15:50;;;;;;;13.88;7.25;;;;;;;22.21;87.41;99896.59;12197305;19;20482;-84
2023/09/09 22:20:08;;;;;;;10.15;6.43;;;;;;;22.01;89.46;99906.41;12189344;19;20035;-84